Aeroporto :
LOGIN :

Iscrizione | Disclaimer

   EN    FR    IT 

 










Sommario :    VFR   VFR Marginale   IFR   IFR Intensivo   IFR Molto Intensivo
Visibilità : 
Base nubi : 
>= 8 km
>= 3000ft
5 / 8 km
1000 / 3000 ft
1500m / 5 km
500 / 1000 ft
800 / 1500m
200 / 500 ft
< 800m
< 200 ft
Simboli :   Temporali  Nebbia  Neve Forte  Precipitazioni Forti  Vento > 20 kt
SIGMETs :   Varie  Temporali  Ghiacco  Turbolenza  Onda orograficha  Ceneri Vulcaniche






- Altitudine del aeroporto : 3368 ft


LSGC - Les Eplatures

ULTIMO METAR :
  • 142020Z AUTO 26004KT 230V300 9000 -RA BKN012 BKN014 BKN016 05/04 Q1008

METARs OBSOLETI :
  • 141950Z AUTO 25005KT 220V280 9999 -RA BKN016 BKN018 BKN020 05/03 Q1008
  • 141920Z AUTO 22005KT 190V250 9999 BKN017 BKN019 05/03 Q1008
  • 141850Z AUTO 23006KT 190V280 9999 SCT012 OVC015 OVC017 05/03 Q1008
  • 141820Z AUTO 24007KT 9999 BKN009 BKN011 04/03 Q1008
  • 141750Z AUTO 24007KT 9999 OVC009 SCT011 05/04 Q1008

TAF TAF LSGC
Valido dal 14 a 15 ore il 15 a 00 ore UTC


141425Z 1415/1424 23005KT CAVOK
TEMPO 1415/1419 23015KT
PROB30
TEMPO 1415/1424 9999 SHRA BKN014



MetMap, La meteo Aeronautica in un colpo d'occhio ! - Copyright ORBIFLY Dicembre 2007 - Disclaimer

ORBIFLY MET'MAP TEAM :

Programmazione e sviluppo : Alexandra Zaïnal
Concezione : Baudouin d'Aumeries
Aiuto per la programmazione : Marc-Olivier Méhu
Supporto tecnico e logistico : Manuel Goepfert
Aiuto per la traduzione : Arnaldo La Scala

Contatto : metmap@orbifly.com




FONTI E CREDITI :

   NOAA